sensor_id;sensor_type;location;lat;lon;timestamp;pressure;altitude;pressure_sealevel;temperature;humidity
76726;BME280;65651;53.154;17.916;2023-03-19T00:00:45;100982.38;;;2.59;68.56
76726;BME280;65651;53.154;17.916;2023-03-19T00:03:32;100982.75;;;2.59;68.78
76726;BME280;65651;53.154;17.916;2023-03-19T00:06:03;100985.16;;;2.56;68.61
76726;BME280;65651;53.154;17.916;2023-03-19T00:08:30;100982.21;;;2.52;68.83
76726;BME280;65651;53.154;17.916;2023-03-19T00:10:57;100983.69;;;2.48;69.33
76726;BME280;65651;53.154;17.916;2023-03-19T00:13:24;100979.13;;;2.44;69.08
76726;BME280;65651;53.154;17.916;2023-03-19T00:15:50;100979.64;;;2.41;69.15
76726;BME280;65651;53.154;17.916;2023-03-19T00:18:18;100986.09;;;2.40;69.16
76726;BME280;65651;53.154;17.916;2023-03-19T00:20:45;100982.81;;;2.38;69.21
76726;BME280;65651;53.154;17.916;2023-03-19T00:23:12;100984.86;;;2.36;69.54
76726;BME280;65651;53.154;17.916;2023-03-19T00:25:40;100983.63;;;2.33;69.64
76726;BME280;65651;53.154;17.916;2023-03-19T00:28:08;100987.30;;;2.31;69.65
76726;BME280;65651;53.154;17.916;2023-03-19T00:30:35;100986.33;;;2.29;69.84
76726;BME280;65651;53.154;17.916;2023-03-19T00:33:02;100984.80;;;2.28;69.78
76726;BME280;65651;53.154;17.916;2023-03-19T00:35:30;100985.79;;;2.26;69.80
76726;BME280;65651;53.154;17.916;2023-03-19T00:37:59;100990.34;;;2.24;69.90
76726;BME280;65651;53.154;17.916;2023-03-19T00:40:26;100991.70;;;2.22;70.19
76726;BME280;65651;53.154;17.916;2023-03-19T00:42:55;100991.96;;;2.20;70.14
76726;BME280;65651;53.154;17.916;2023-03-19T00:45:22;100988.80;;;2.19;69.95
76726;BME280;65651;53.154;17.916;2023-03-19T00:47:49;100983.19;;;2.19;70.11
76726;BME280;65651;53.154;17.916;2023-03-19T00:50:16;100987.52;;;2.20;70.23
76726;BME280;65651;53.154;17.916;2023-03-19T00:52:44;100983.14;;;2.20;70.20
76726;BME280;65651;53.154;17.916;2023-03-19T00:55:11;100986.75;;;2.22;70.29
76726;BME280;65651;53.154;17.916;2023-03-19T00:57:38;100987.15;;;2.21;70.21
76726;BME280;65651;53.154;17.916;2023-03-19T01:00:06;100985.27;;;2.19;70.43
76726;BME280;65651;53.154;17.916;2023-03-19T01:02:34;100988.07;;;2.20;70.45
76726;BME280;65651;53.154;17.916;2023-03-19T01:05:02;100988.10;;;2.19;70.48
76726;BME280;65651;53.154;17.916;2023-03-19T01:07:29;100990.38;;;2.17;70.56
76726;BME280;65651;53.154;17.916;2023-03-19T01:09:56;100993.89;;;2.17;70.49
76726;BME280;65651;53.154;17.916;2023-03-19T01:12:23;100994.19;;;2.18;70.53
76726;BME280;65651;53.154;17.916;2023-03-19T01:14:51;100997.04;;;2.18;70.50
76726;BME280;65651;53.154;17.916;2023-03-19T01:17:18;101000.29;;;2.17;70.77
76726;BME280;65651;53.154;17.916;2023-03-19T01:19:45;100996.66;;;2.15;70.65
76726;BME280;65651;53.154;17.916;2023-03-19T01:22:13;100994.23;;;2.11;70.76
76726;BME280;65651;53.154;17.916;2023-03-19T01:24:48;100991.61;;;2.07;71.00
76726;BME280;65651;53.154;17.916;2023-03-19T01:27:16;100993.21;;;2.04;70.88
76726;BME280;65651;53.154;17.916;2023-03-19T01:29:45;100990.89;;;2.01;70.89
76726;BME280;65651;53.154;17.916;2023-03-19T01:32:39;100989.95;;;1.99;71.21
76726;BME280;65651;53.154;17.916;2023-03-19T01:35:29;100986.56;;;1.95;71.34
76726;BME280;65651;53.154;17.916;2023-03-19T01:37:56;100991.92;;;1.95;71.27
76726;BME280;65651;53.154;17.916;2023-03-19T01:40:23;100990.98;;;1.92;71.50
76726;BME280;65651;53.154;17.916;2023-03-19T01:43:15;100992.14;;;1.91;71.56
76726;BME280;65651;53.154;17.916;2023-03-19T01:45:57;100991.60;;;1.87;71.62
76726;BME280;65651;53.154;17.916;2023-03-19T01:48:49;100991.55;;;1.85;71.67
76726;BME280;65651;53.154;17.916;2023-03-19T01:51:28;100995.84;;;1.84;71.71
76726;BME280;65651;53.154;17.916;2023-03-19T01:54:31;100993.89;;;1.84;71.80
76726;BME280;65651;53.154;17.916;2023-03-19T01:57:19;100993.02;;;1.87;71.93
76726;BME280;65651;53.154;17.916;2023-03-19T02:00:27;100994.64;;;1.90;71.78
76726;BME280;65651;53.154;17.916;2023-03-19T02:02:58;100989.25;;;1.92;72.11
76726;BME280;65651;53.154;17.916;2023-03-19T02:05:40;100987.80;;;1.96;72.30
76726;BME280;65651;53.154;17.916;2023-03-19T02:08:13;100985.46;;;1.99;72.08
76726;BME280;65651;53.154;17.916;2023-03-19T02:10:45;100984.21;;;2.06;72.18
76726;BME280;65651;53.154;17.916;2023-03-19T02:13:13;100985.85;;;2.12;72.27
76726;BME280;65651;53.154;17.916;2023-03-19T02:15:41;100980.10;;;2.17;72.29
76726;BME280;65651;53.154;17.916;2023-03-19T02:18:08;100975.62;;;2.21;72.04
76726;BME280;65651;53.154;17.916;2023-03-19T02:20:57;100972.71;;;2.25;72.12
76726;BME280;65651;53.154;17.916;2023-03-19T02:23:49;100972.84;;;2.30;72.23
76726;BME280;65651;53.154;17.916;2023-03-19T02:26:22;100976.75;;;2.32;72.24
76726;BME280;65651;53.154;17.916;2023-03-19T02:28:52;100975.80;;;2.34;72.33
76726;BME280;65651;53.154;17.916;2023-03-19T02:31:27;100976.83;;;2.35;72.10
76726;BME280;65651;53.154;17.916;2023-03-19T02:36:58;100976.89;;;2.33;72.21
76726;BME280;65651;53.154;17.916;2023-03-19T02:40:02;100976.40;;;2.33;72.48
76726;BME280;65651;53.154;17.916;2023-03-19T02:42:31;100974.02;;;2.31;72.29
76726;BME280;65651;53.154;17.916;2023-03-19T02:44:58;100977.14;;;2.29;72.33
76726;BME280;65651;53.154;17.916;2023-03-19T02:47:26;100978.65;;;2.27;72.31
76726;BME280;65651;53.154;17.916;2023-03-19T02:49:53;100977.67;;;2.26;72.53
76726;BME280;65651;53.154;17.916;2023-03-19T02:52:21;100973.25;;;2.25;72.58
76726;BME280;65651;53.154;17.916;2023-03-19T02:54:49;100977.35;;;2.25;72.55
76726;BME280;65651;53.154;17.916;2023-03-19T02:57:16;100985.45;;;2.23;72.68
76726;BME280;65651;53.154;17.916;2023-03-19T02:59:43;100984.67;;;2.21;72.70
76726;BME280;65651;53.154;17.916;2023-03-19T03:02:11;100986.19;;;2.19;72.64
76726;BME280;65651;53.154;17.916;2023-03-19T03:04:39;100989.65;;;2.17;72.81
76726;BME280;65651;53.154;17.916;2023-03-19T03:07:06;100986.80;;;2.17;72.63
76726;BME280;65651;53.154;17.916;2023-03-19T03:09:34;100982.64;;;2.19;72.71
76726;BME280;65651;53.154;17.916;2023-03-19T03:12:01;100974.57;;;2.21;72.83
76726;BME280;65651;53.154;17.916;2023-03-19T03:14:29;100976.10;;;2.22;72.77
76726;BME280;65651;53.154;17.916;2023-03-19T03:16:56;100981.03;;;2.23;72.91
76726;BME280;65651;53.154;17.916;2023-03-19T03:19:24;100980.36;;;2.22;72.75
76726;BME280;65651;53.154;17.916;2023-03-19T03:21:51;100979.17;;;2.21;72.97
76726;BME280;65651;53.154;17.916;2023-03-19T03:24:19;100979.75;;;2.20;72.96
76726;BME280;65651;53.154;17.916;2023-03-19T03:26:48;100985.05;;;2.17;73.26
76726;BME280;65651;53.154;17.916;2023-03-19T03:29:15;100989.72;;;2.16;73.14
76726;BME280;65651;53.154;17.916;2023-03-19T03:31:42;100992.33;;;2.13;73.20
76726;BME280;65651;53.154;17.916;2023-03-19T03:34:09;100994.30;;;2.10;73.22
76726;BME280;65651;53.154;17.916;2023-03-19T03:36:37;100992.35;;;2.06;73.26
76726;BME280;65651;53.154;17.916;2023-03-19T03:39:04;100995.98;;;2.05;73.15
76726;BME280;65651;53.154;17.916;2023-03-19T03:41:31;100995.05;;;2.02;73.14
76726;BME280;65651;53.154;17.916;2023-03-19T03:44:02;100995.37;;;2.00;73.15
76726;BME280;65651;53.154;17.916;2023-03-19T03:46:29;100993.30;;;1.95;73.31
76726;BME280;65651;53.154;17.916;2023-03-19T03:48:56;100994.04;;;1.92;73.38
76726;BME280;65651;53.154;17.916;2023-03-19T03:51:24;100993.91;;;1.91;73.31
76726;BME280;65651;53.154;17.916;2023-03-19T03:53:51;100990.02;;;1.91;73.32
76726;BME280;65651;53.154;17.916;2023-03-19T03:56:18;100991.52;;;1.92;73.51
76726;BME280;65651;53.154;17.916;2023-03-19T03:58:47;100993.70;;;1.94;73.41
76726;BME280;65651;53.154;17.916;2023-03-19T04:01:15;100993.23;;;1.94;73.50
76726;BME280;65651;53.154;17.916;2023-03-19T04:03:43;100990.05;;;1.94;73.52
76726;BME280;65651;53.154;17.916;2023-03-19T04:06:16;100989.36;;;1.93;73.93
76726;BME280;65651;53.154;17.916;2023-03-19T04:08:45;100991.83;;;1.93;73.61
76726;BME280;65651;53.154;17.916;2023-03-19T04:11:12;100992.77;;;1.95;73.76
76726;BME280;65651;53.154;17.916;2023-03-19T04:13:40;100996.01;;;1.94;73.75
76726;BME280;65651;53.154;17.916;2023-03-19T04:16:08;100995.31;;;1.94;73.74
76726;BME280;65651;53.154;17.916;2023-03-19T04:18:37;100998.36;;;1.93;73.67
76726;BME280;65651;53.154;17.916;2023-03-19T04:21:05;100997.31;;;1.93;73.86
76726;BME280;65651;53.154;17.916;2023-03-19T04:23:32;100992.94;;;1.92;73.85
76726;BME280;65651;53.154;17.916;2023-03-19T04:26:01;100993.43;;;1.89;73.96
76726;BME280;65651;53.154;17.916;2023-03-19T04:28:29;100997.14;;;1.86;73.89
76726;BME280;65651;53.154;17.916;2023-03-19T04:31:05;101001.28;;;1.85;73.97
76726;BME280;65651;53.154;17.916;2023-03-19T04:33:34;100998.85;;;1.84;74.04
76726;BME280;65651;53.154;17.916;2023-03-19T04:36:03;101006.53;;;1.82;74.04
76726;BME280;65651;53.154;17.916;2023-03-19T04:38:33;101012.16;;;1.80;74.03
76726;BME280;65651;53.154;17.916;2023-03-19T04:41:00;101017.41;;;1.78;73.83
76726;BME280;65651;53.154;17.916;2023-03-19T04:43:27;101018.16;;;1.74;74.13
76726;BME280;65651;53.154;17.916;2023-03-19T04:45:54;101019.57;;;1.70;74.22
76726;BME280;65651;53.154;17.916;2023-03-19T04:48:22;101021.13;;;1.68;74.11
76726;BME280;65651;53.154;17.916;2023-03-19T04:50:50;101016.98;;;1.66;74.14
76726;BME280;65651;53.154;17.916;2023-03-19T04:53:19;101013.27;;;1.66;74.02
76726;BME280;65651;53.154;17.916;2023-03-19T04:55:47;101012.77;;;1.65;74.36
76726;BME280;65651;53.154;17.916;2023-03-19T04:58:17;101014.67;;;1.66;74.27
76726;BME280;65651;53.154;17.916;2023-03-19T05:00:46;101016.16;;;1.68;74.36
76726;BME280;65651;53.154;17.916;2023-03-19T05:03:17;101016.70;;;1.71;74.53
76726;BME280;65651;53.154;17.916;2023-03-19T05:05:44;101015.56;;;1.76;74.37
76726;BME280;65651;53.154;17.916;2023-03-19T05:08:12;101011.41;;;1.81;74.43
76726;BME280;65651;53.154;17.916;2023-03-19T05:10:40;101012.05;;;1.86;74.40
76726;BME280;65651;53.154;17.916;2023-03-19T05:13:08;101010.15;;;1.91;74.40
76726;BME280;65651;53.154;17.916;2023-03-19T05:15:41;101014.13;;;2.00;74.28
76726;BME280;65651;53.154;17.916;2023-03-19T05:18:10;101015.20;;;2.06;74.42
76726;BME280;65651;53.154;17.916;2023-03-19T05:20:40;101015.16;;;2.13;74.43
76726;BME280;65651;53.154;17.916;2023-03-19T05:23:15;101015.90;;;2.20;74.38
76726;BME280;65651;53.154;17.916;2023-03-19T05:25:54;101011.81;;;2.26;74.39
76726;BME280;65651;53.154;17.916;2023-03-19T05:28:38;101014.08;;;2.37;74.29
76726;BME280;65651;53.154;17.916;2023-03-19T05:31:06;101010.99;;;2.48;74.06
76726;BME280;65651;53.154;17.916;2023-03-19T05:33:40;101002.86;;;2.57;74.14
76726;BME280;65651;53.154;17.916;2023-03-19T05:36:10;101000.36;;;2.67;74.47
76726;BME280;65651;53.154;17.916;2023-03-19T05:38:54;101005.11;;;2.80;73.99
76726;BME280;65651;53.154;17.916;2023-03-19T05:41:27;101007.79;;;2.89;73.93
76726;BME280;65651;53.154;17.916;2023-03-19T05:43:59;101007.50;;;2.97;74.04
76726;BME280;65651;53.154;17.916;2023-03-19T05:46:52;101011.59;;;3.09;74.03
76726;BME280;65651;53.154;17.916;2023-03-19T05:49:22;101013.80;;;3.23;73.88
76726;BME280;65651;53.154;17.916;2023-03-19T05:51:49;101010.73;;;3.36;73.47
76726;BME280;65651;53.154;17.916;2023-03-19T05:54:16;101015.69;;;3.48;73.73
76726;BME280;65651;53.154;17.916;2023-03-19T05:57:12;101015.04;;;3.62;73.32
76726;BME280;65651;53.154;17.916;2023-03-19T05:59:48;101018.54;;;3.72;73.55
76726;BME280;65651;53.154;17.916;2023-03-19T06:02:22;101020.25;;;3.82;73.21
76726;BME280;65651;53.154;17.916;2023-03-19T06:04:51;101023.02;;;3.92;73.10
76726;BME280;65651;53.154;17.916;2023-03-19T06:07:19;101028.49;;;4.01;73.26
76726;BME280;65651;53.154;17.916;2023-03-19T06:09:47;101026.82;;;4.11;73.06
76726;BME280;65651;53.154;17.916;2023-03-19T06:12:14;101029.45;;;4.20;72.99
76726;BME280;65651;53.154;17.916;2023-03-19T06:15:13;101031.08;;;4.31;72.98
76726;BME280;65651;53.154;17.916;2023-03-19T06:17:59;101035.20;;;4.42;73.04
76726;BME280;65651;53.154;17.916;2023-03-19T06:20:26;101036.05;;;4.53;72.43
76726;BME280;65651;53.154;17.916;2023-03-19T06:22:53;101038.95;;;4.64;72.51
76726;BME280;65651;53.154;17.916;2023-03-19T06:25:21;101042.42;;;4.74;72.38
76726;BME280;65651;53.154;17.916;2023-03-19T06:27:49;101046.45;;;4.88;72.31
76726;BME280;65651;53.154;17.916;2023-03-19T06:30:25;101050.78;;;5.09;72.14
76726;BME280;65651;53.154;17.916;2023-03-19T06:32:53;101047.16;;;5.29;71.74
76726;BME280;65651;53.154;17.916;2023-03-19T06:35:21;101048.30;;;5.50;71.72
76726;BME280;65651;53.154;17.916;2023-03-19T06:37:48;101046.51;;;5.73;71.53
76726;BME280;65651;53.154;17.916;2023-03-19T06:40:16;101045.33;;;6.01;71.23
76726;BME280;65651;53.154;17.916;2023-03-19T06:42:45;101048.48;;;6.48;70.95
76726;BME280;65651;53.154;17.916;2023-03-19T06:45:14;101046.29;;;6.88;70.22
76726;BME280;65651;53.154;17.916;2023-03-19T06:47:47;101049.00;;;7.57;69.87
76726;BME280;65651;53.154;17.916;2023-03-19T06:50:15;101051.41;;;8.33;69.26
76726;BME280;65651;53.154;17.916;2023-03-19T06:52:43;101056.73;;;8.78;68.79
76726;BME280;65651;53.154;17.916;2023-03-19T06:55:10;101061.08;;;9.08;68.53
76726;BME280;65651;53.154;17.916;2023-03-19T06:57:38;101062.86;;;9.56;67.77
76726;BME280;65651;53.154;17.916;2023-03-19T07:00:06;101059.69;;;10.41;66.74
76726;BME280;65651;53.154;17.916;2023-03-19T07:02:36;101057.32;;;12.13;65.26
76726;BME280;65651;53.154;17.916;2023-03-19T07:05:03;101059.30;;;13.82;64.05
76726;BME280;65651;53.154;17.916;2023-03-19T07:07:31;101055.83;;;15.25;62.85
76726;BME280;65651;53.154;17.916;2023-03-19T07:09:58;101054.77;;;16.42;61.54
76726;BME280;65651;53.154;17.916;2023-03-19T07:12:25;101051.98;;;17.32;60.23
76726;BME280;65651;53.154;17.916;2023-03-19T07:14:55;101049.44;;;18.22;58.91
76726;BME280;65651;53.154;17.916;2023-03-19T07:17:23;101043.66;;;18.77;57.99
76726;BME280;65651;53.154;17.916;2023-03-19T07:19:51;101046.81;;;19.15;56.68
76726;BME280;65651;53.154;17.916;2023-03-19T07:22:18;101044.74;;;19.33;55.35
76726;BME280;65651;53.154;17.916;2023-03-19T07:24:45;101042.82;;;19.82;54.06
76726;BME280;65651;53.154;17.916;2023-03-19T07:27:12;101043.80;;;20.57;52.09
76726;BME280;65651;53.154;17.916;2023-03-19T07:29:39;101043.98;;;20.80;50.32
76726;BME280;65651;53.154;17.916;2023-03-19T07:32:09;101041.27;;;20.96;49.40
76726;BME280;65651;53.154;17.916;2023-03-19T07:34:37;101049.21;;;21.63;48.12
76726;BME280;65651;53.154;17.916;2023-03-19T07:37:04;101048.09;;;21.73;46.84
76726;BME280;65651;53.154;17.916;2023-03-19T07:39:35;101047.25;;;20.55;46.01
76726;BME280;65651;53.154;17.916;2023-03-19T07:42:02;101044.20;;;19.36;45.89
76726;BME280;65651;53.154;17.916;2023-03-19T07:44:31;101041.98;;;18.68;44.84
76726;BME280;65651;53.154;17.916;2023-03-19T07:46:58;101045.67;;;17.67;44.35
76726;BME280;65651;53.154;17.916;2023-03-19T07:49:25;101044.45;;;16.92;44.16
76726;BME280;65651;53.154;17.916;2023-03-19T07:51:52;101042.14;;;16.15;43.98
76726;BME280;65651;53.154;17.916;2023-03-19T07:54:19;101054.44;;;15.52;43.88
76726;BME280;65651;53.154;17.916;2023-03-19T07:56:46;101053.90;;;15.03;44.17
76726;BME280;65651;53.154;17.916;2023-03-19T07:59:13;101053.05;;;14.72;44.06
76726;BME280;65651;53.154;17.916;2023-03-19T08:01:40;101058.52;;;14.37;44.11
76726;BME280;65651;53.154;17.916;2023-03-19T08:04:07;101060.36;;;14.00;44.04
76726;BME280;65651;53.154;17.916;2023-03-19T08:06:34;101063.00;;;13.69;44.32
76726;BME280;65651;53.154;17.916;2023-03-19T08:09:01;101062.62;;;13.31;44.49
76726;BME280;65651;53.154;17.916;2023-03-19T08:11:29;101057.62;;;12.98;44.73
76726;BME280;65651;53.154;17.916;2023-03-19T08:13:56;101051.86;;;12.76;45.14
76726;BME280;65651;53.154;17.916;2023-03-19T08:16:23;101051.77;;;12.79;45.22
76726;BME280;65651;53.154;17.916;2023-03-19T08:18:50;101046.28;;;12.72;45.44
76726;BME280;65651;53.154;17.916;2023-03-19T08:21:17;101046.19;;;12.62;45.64
76726;BME280;65651;53.154;17.916;2023-03-19T08:23:44;101041.65;;;12.49;45.84
76726;BME280;65651;53.154;17.916;2023-03-19T08:26:11;101045.73;;;12.57;45.89
76726;BME280;65651;53.154;17.916;2023-03-19T08:28:38;101043.05;;;12.68;45.96
76726;BME280;65651;53.154;17.916;2023-03-19T08:31:11;101042.16;;;12.79;45.89
76726;BME280;65651;53.154;17.916;2023-03-19T08:33:39;101033.98;;;12.87;45.89
76726;BME280;65651;53.154;17.916;2023-03-19T08:36:08;101032.17;;;12.93;45.89
76726;BME280;65651;53.154;17.916;2023-03-19T08:38:36;101034.08;;;12.96;46.08
76726;BME280;65651;53.154;17.916;2023-03-19T08:41:04;101031.20;;;12.99;45.98
76726;BME280;65651;53.154;17.916;2023-03-19T08:43:34;101029.21;;;12.90;46.08
76726;BME280;65651;53.154;17.916;2023-03-19T08:46:03;101028.10;;;12.81;46.07
76726;BME280;65651;53.154;17.916;2023-03-19T08:48:31;101031.13;;;12.78;46.15
76726;BME280;65651;53.154;17.916;2023-03-19T08:51:00;101034.27;;;12.79;46.16
76726;BME280;65651;53.154;17.916;2023-03-19T08:53:30;101031.52;;;12.79;46.30
76726;BME280;65651;53.154;17.916;2023-03-19T08:56:00;101032.34;;;12.98;46.40
76726;BME280;65651;53.154;17.916;2023-03-19T08:58:27;101031.88;;;13.23;46.47
76726;BME280;65651;53.154;17.916;2023-03-19T09:01:08;101034.34;;;13.40;46.29
76726;BME280;65651;53.154;17.916;2023-03-19T09:03:37;101030.85;;;13.55;46.24
76726;BME280;65651;53.154;17.916;2023-03-19T09:06:06;101032.24;;;13.64;46.23
76726;BME280;65651;53.154;17.916;2023-03-19T09:08:34;101032.29;;;13.77;46.02
76726;BME280;65651;53.154;17.916;2023-03-19T09:11:03;101032.09;;;13.96;45.95
76726;BME280;65651;53.154;17.916;2023-03-19T09:13:33;101025.45;;;14.22;45.98
76726;BME280;65651;53.154;17.916;2023-03-19T09:16:03;101021.86;;;14.44;45.84
76726;BME280;65651;53.154;17.916;2023-03-19T09:18:34;101019.81;;;14.64;45.67
76726;BME280;65651;53.154;17.916;2023-03-19T09:21:01;101017.64;;;14.81;45.24
76726;BME280;65651;53.154;17.916;2023-03-19T09:23:29;101018.59;;;14.95;45.29
76726;BME280;65651;53.154;17.916;2023-03-19T09:25:56;101018.02;;;15.11;45.06
76726;BME280;65651;53.154;17.916;2023-03-19T09:28:23;101018.89;;;15.31;44.93
76726;BME280;65651;53.154;17.916;2023-03-19T09:30:50;101016.98;;;15.57;44.47
76726;BME280;65651;53.154;17.916;2023-03-19T09:33:19;101015.33;;;15.83;44.08
76726;BME280;65651;53.154;17.916;2023-03-19T09:35:52;101016.91;;;16.01;43.87
76726;BME280;65651;53.154;17.916;2023-03-19T09:38:20;101012.02;;;16.21;43.64
76726;BME280;65651;53.154;17.916;2023-03-19T09:41:15;101011.38;;;16.33;43.42
76726;BME280;65651;53.154;17.916;2023-03-19T09:46:33;101015.61;;;16.50;42.87
76726;BME280;65651;53.154;17.916;2023-03-19T09:49:09;101011.48;;;16.72;42.86
76726;BME280;65651;53.154;17.916;2023-03-19T09:51:46;101011.38;;;16.90;42.52
76726;BME280;65651;53.154;17.916;2023-03-19T09:56:53;101007.64;;;17.25;41.98
76726;BME280;65651;53.154;17.916;2023-03-19T09:59:23;101007.73;;;17.34;41.66
76726;BME280;65651;53.154;17.916;2023-03-19T10:16:18;101003.58;;;17.01;40.88
76726;BME280;65651;53.154;17.916;2023-03-19T10:18:49;101006.73;;;17.05;40.66
76726;BME280;65651;53.154;17.916;2023-03-19T10:21:36;101010.95;;;17.02;40.56
76726;BME280;65651;53.154;17.916;2023-03-19T10:24:14;101010.66;;;16.98;40.67
76726;BME280;65651;53.154;17.916;2023-03-19T10:26:44;101008.48;;;16.91;40.68
76726;BME280;65651;53.154;17.916;2023-03-19T10:29:17;101004.75;;;16.96;40.71
76726;BME280;65651;53.154;17.916;2023-03-19T10:31:52;100999.29;;;17.01;40.67
76726;BME280;65651;53.154;17.916;2023-03-19T10:39:35;100995.51;;;16.80;40.45
76726;BME280;65651;53.154;17.916;2023-03-19T10:45:34;100997.64;;;16.69;40.62
76726;BME280;65651;53.154;17.916;2023-03-19T10:48:03;100994.23;;;16.71;40.65
76726;BME280;65651;53.154;17.916;2023-03-19T10:50:36;100993.98;;;16.68;40.44
76726;BME280;65651;53.154;17.916;2023-03-19T10:58:24;100984.19;;;16.95;40.34
76726;BME280;65651;53.154;17.916;2023-03-19T11:00:57;100984.46;;;17.00;40.06
76726;BME280;65651;53.154;17.916;2023-03-19T11:03:31;100984.83;;;17.06;40.08
76726;BME280;65651;53.154;17.916;2023-03-19T11:08:36;100986.05;;;17.11;39.96
76726;BME280;65651;53.154;17.916;2023-03-19T11:11:03;100980.97;;;17.09;40.05
76726;BME280;65651;53.154;17.916;2023-03-19T11:13:33;100981.73;;;17.08;39.75
76726;BME280;65651;53.154;17.916;2023-03-19T11:16:04;100983.41;;;17.00;39.73
76726;BME280;65651;53.154;17.916;2023-03-19T11:18:36;100981.13;;;17.01;40.00
76726;BME280;65651;53.154;17.916;2023-03-19T11:21:27;100980.41;;;17.07;39.98
76726;BME280;65651;53.154;17.916;2023-03-19T11:23:59;100977.98;;;17.15;40.04
76726;BME280;65651;53.154;17.916;2023-03-19T11:26:27;100974.42;;;17.24;39.91
76726;BME280;65651;53.154;17.916;2023-03-19T11:29:01;100968.07;;;17.31;39.80
76726;BME280;65651;53.154;17.916;2023-03-19T11:31:45;100972.35;;;17.38;39.76
76726;BME280;65651;53.154;17.916;2023-03-19T11:40:19;100965.66;;;17.62;39.51
76726;BME280;65651;53.154;17.916;2023-03-19T11:45:38;100959.63;;;17.70;39.84
76726;BME280;65651;53.154;17.916;2023-03-19T11:53:59;100958.67;;;17.66;39.50
76726;BME280;65651;53.154;17.916;2023-03-19T12:04:55;100963.64;;;17.81;39.71
76726;BME280;65651;53.154;17.916;2023-03-19T12:10:28;100956.45;;;17.95;39.56
76726;BME280;65651;53.154;17.916;2023-03-19T12:13:56;100953.47;;;17.98;39.29
76726;BME280;65651;53.154;17.916;2023-03-19T12:22:24;100951.84;;;18.16;39.14
76726;BME280;65651;53.154;17.916;2023-03-19T12:30:40;100938.77;;;18.06;39.07
76726;BME280;65651;53.154;17.916;2023-03-19T12:35:42;100929.48;;;18.08;39.44
76726;BME280;65651;53.154;17.916;2023-03-19T12:41:05;100923.49;;;18.25;39.37
76726;BME280;65651;53.154;17.916;2023-03-19T12:43:56;100920.15;;;18.34;39.22
76726;BME280;65651;53.154;17.916;2023-03-19T12:50:07;100921.45;;;18.23;39.33
76726;BME280;65651;53.154;17.916;2023-03-19T12:52:32;100926.30;;;18.00;39.23
76726;BME280;65651;53.154;17.916;2023-03-19T12:58:02;100937.92;;;17.72;39.44
76726;BME280;65651;53.154;17.916;2023-03-19T13:00:46;100942.02;;;17.59;39.58
76726;BME280;65651;53.154;17.916;2023-03-19T13:05:58;100940.39;;;17.51;39.72
76726;BME280;65651;53.154;17.916;2023-03-19T13:08:38;100942.05;;;17.35;39.57
76726;BME280;65651;53.154;17.916;2023-03-19T13:11:14;100939.57;;;17.12;39.58
76726;BME280;65651;53.154;17.916;2023-03-19T13:13:57;100935.51;;;16.98;39.85
76726;BME280;65651;53.154;17.916;2023-03-19T13:16:51;100937.64;;;16.89;39.61
76726;BME280;65651;53.154;17.916;2023-03-19T13:19:45;100934.00;;;16.83;39.44
76726;BME280;65651;53.154;17.916;2023-03-19T13:22:16;100934.70;;;16.82;39.65
76726;BME280;65651;53.154;17.916;2023-03-19T13:24:46;100932.44;;;16.81;39.79
76726;BME280;65651;53.154;17.916;2023-03-19T13:27:26;100929.01;;;16.83;39.97
76726;BME280;65651;53.154;17.916;2023-03-19T13:30:00;100931.71;;;16.80;39.89
76726;BME280;65651;53.154;17.916;2023-03-19T13:32:37;100933.10;;;16.69;40.04
76726;BME280;65651;53.154;17.916;2023-03-19T13:38:28;100936.66;;;16.59;40.17
76726;BME280;65651;53.154;17.916;2023-03-19T13:41:00;100938.10;;;16.60;40.37
76726;BME280;65651;53.154;17.916;2023-03-19T13:46:08;100932.15;;;16.46;40.71
76726;BME280;65651;53.154;17.916;2023-03-19T13:48:51;100933.19;;;16.32;40.74
76726;BME280;65651;53.154;17.916;2023-03-19T13:59:30;100926.23;;;16.39;40.94
76726;BME280;65651;53.154;17.916;2023-03-19T14:01:58;100927.94;;;16.38;40.87
76726;BME280;65651;53.154;17.916;2023-03-19T14:04:30;100925.85;;;16.35;41.02
76726;BME280;65651;53.154;17.916;2023-03-19T14:09:39;100927.88;;;16.36;41.40
76726;BME280;65651;53.154;17.916;2023-03-19T14:17:58;100921.84;;;16.22;41.80
76726;BME280;65651;53.154;17.916;2023-03-19T14:20:32;100920.02;;;16.14;41.87
76726;BME280;65651;53.154;17.916;2023-03-19T14:36:49;100913.60;;;16.07;42.66
76726;BME280;65651;53.154;17.916;2023-03-19T14:39:24;100916.98;;;16.12;42.68
76726;BME280;65651;53.154;17.916;2023-03-19T14:42:18;100918.33;;;16.14;42.79
76726;BME280;65651;53.154;17.916;2023-03-19T14:47:31;100910.66;;;16.01;43.00
76726;BME280;65651;53.154;17.916;2023-03-19T14:53:18;100903.50;;;16.00;43.29
76726;BME280;65651;53.154;17.916;2023-03-19T14:55:51;100907.78;;;16.01;43.32
76726;BME280;65651;53.154;17.916;2023-03-19T14:58:19;100902.46;;;15.98;43.51
76726;BME280;65651;53.154;17.916;2023-03-19T15:00:52;100904.10;;;15.95;43.59
76726;BME280;65651;53.154;17.916;2023-03-19T15:05:56;100901.86;;;15.76;43.82
76726;BME280;65651;53.154;17.916;2023-03-19T15:08:25;100900.32;;;15.73;43.85
76726;BME280;65651;53.154;17.916;2023-03-19T15:19:07;100899.02;;;15.55;44.31
76726;BME280;65651;53.154;17.916;2023-03-19T15:21:42;100899.36;;;15.48;44.49
76726;BME280;65651;53.154;17.916;2023-03-19T15:24:14;100896.11;;;15.40;44.72
76726;BME280;65651;53.154;17.916;2023-03-19T15:26:43;100902.99;;;15.34;44.87
76726;BME280;65651;53.154;17.916;2023-03-19T15:29:10;100904.42;;;15.24;45.08
76726;BME280;65651;53.154;17.916;2023-03-19T15:31:45;100906.59;;;15.16;45.20